createdAt,value
2018-06-29T00:00:08.746Z,18.14
2018-06-29T00:02:37.792Z,18.24
2018-06-29T00:05:07.782Z,18.31
2018-06-29T00:07:36.793Z,18.36
2018-06-29T00:10:06.499Z,18.41
2018-06-29T00:12:35.561Z,18.43
2018-06-29T00:15:04.569Z,18.46
2018-06-29T00:17:33.513Z,18.45
2018-06-29T00:20:02.476Z,18.42
2018-06-29T00:22:31.549Z,18.37
2018-06-29T00:25:00.598Z,18.33
2018-06-29T00:27:29.671Z,18.29
2018-06-29T00:29:58.713Z,18.26
2018-06-29T00:32:27.667Z,18.21
2018-06-29T00:34:56.645Z,18.19
2018-06-29T00:37:25.627Z,18.15
2018-06-29T00:39:54.652Z,18.11
2018-06-29T00:42:23.728Z,18.04
2018-06-29T00:44:52.714Z,18.00
2018-06-29T00:47:21.673Z,17.96
2018-06-29T00:49:50.700Z,17.98
2018-06-29T00:52:19.713Z,18.00
2018-06-29T00:54:48.746Z,18.04
2018-06-29T00:57:17.783Z,18.07
2018-06-29T00:59:46.760Z,18.08
2018-06-29T01:02:15.770Z,18.12
2018-06-29T01:04:44.745Z,18.09
2018-06-29T01:07:13.753Z,18.04
2018-06-29T01:09:42.909Z,17.97
2018-06-29T01:12:11.941Z,17.89
2018-06-29T01:14:40.965Z,17.82
2018-06-29T01:17:10.065Z,17.74
2018-06-29T01:19:39.105Z,17.64
2018-06-29T01:22:08.140Z,17.53
2018-06-29T01:24:37.100Z,17.45
2018-06-29T01:27:06.140Z,17.38
2018-06-29T01:29:35.092Z,17.29
2018-06-29T01:32:04.105Z,17.21
2018-06-29T01:34:33.122Z,17.16
2018-06-29T01:37:02.097Z,17.06
2018-06-29T01:39:31.140Z,17.01
2018-06-29T01:42:00.204Z,16.95
2018-06-29T01:44:29.270Z,16.92
2018-06-29T01:46:58.293Z,16.89
2018-06-29T01:49:27.369Z,16.89
2018-06-29T01:51:56.389Z,16.93
2018-06-29T01:54:25.408Z,17.00
2018-06-29T01:56:54.349Z,17.10
2018-06-29T01:59:23.365Z,17.19
2018-06-29T02:01:52.385Z,17.24
2018-06-29T02:04:21.367Z,17.24
2018-06-29T02:06:50.309Z,17.20
2018-06-29T02:09:19.346Z,17.16
2018-06-29T02:11:48.307Z,17.09
2018-06-29T02:14:17.256Z,17.07
2018-06-29T02:16:46.296Z,17.07
2018-06-29T02:19:15.336Z,17.07
2018-06-29T02:21:44.322Z,17.06
2018-06-29T02:24:13.415Z,17.04
2018-06-29T02:26:42.436Z,16.97
2018-06-29T02:29:11.478Z,16.91
2018-06-29T02:31:40.542Z,16.86
2018-06-29T02:34:09.585Z,16.82
2018-06-29T02:36:38.593Z,16.78
2018-06-29T02:39:10.509Z,16.74
2018-06-29T02:41:39.633Z,16.69
2018-06-29T02:44:08.680Z,16.69
2018-06-29T02:46:37.877Z,16.71
2018-06-29T02:49:06.928Z,16.81
2018-06-29T02:51:36.214Z,16.93
2018-06-29T02:54:05.654Z,17.05
2018-06-29T02:56:34.774Z,17.19
2018-06-29T02:59:03.798Z,17.30
2018-06-29T03:01:32.832Z,17.38
2018-06-29T03:04:01.939Z,17.43
2018-06-29T03:06:30.960Z,17.47
2018-06-29T03:09:00.046Z,17.51
2018-06-29T03:11:29.084Z,17.52
2018-06-29T03:13:58.113Z,17.48
2018-06-29T03:16:27.141Z,17.45
2018-06-29T03:18:56.096Z,17.42
2018-06-29T03:21:25.176Z,17.43
2018-06-29T03:23:54.193Z,17.44
2018-06-29T03:26:23.146Z,17.47
2018-06-29T03:28:52.160Z,17.52
2018-06-29T03:31:21.103Z,17.56
2018-06-29T03:33:50.084Z,17.59
2018-06-29T03:36:19.030Z,17.61
2018-06-29T03:38:48.075Z,17.71
2018-06-29T03:41:17.312Z,17.83
2018-06-29T03:43:46.333Z,17.93
2018-06-29T03:46:15.305Z,18.04
2018-06-29T03:48:44.322Z,18.47
2018-06-29T03:51:13.296Z,20.06
2018-06-29T03:53:42.245Z,21.22
2018-06-29T03:56:11.220Z,21.95
2018-06-29T03:58:40.200Z,23.61
2018-06-29T04:01:09.290Z,25.49
2018-06-29T04:03:38.372Z,26.38
2018-06-29T04:06:07.422Z,26.20
2018-06-29T04:08:36.436Z,27.07
2018-06-29T04:11:05.479Z,28.55
2018-06-29T04:13:34.509Z,29.80
2018-06-29T04:16:03.471Z,31.09
2018-06-29T04:18:32.454Z,31.82
2018-06-29T04:21:01.425Z,32.59
2018-06-29T04:23:30.605Z,33.02
2018-06-29T04:25:59.573Z,33.52
2018-06-29T04:28:28.697Z,34.03
2018-06-29T04:30:57.648Z,34.53
2018-06-29T04:33:26.615Z,35.18
2018-06-29T04:35:55.681Z,35.64
2018-06-29T04:38:24.667Z,36.16
2018-06-29T04:40:53.732Z,36.85
2018-06-29T04:43:22.748Z,37.17
2018-06-29T04:45:51.725Z,37.82
2018-06-29T04:48:20.685Z,38.24
2018-06-29T04:50:49.786Z,38.56
2018-06-29T04:53:18.936Z,38.81
2018-06-29T04:55:47.957Z,38.75
2018-06-29T04:58:17.005Z,38.88
2018-06-29T05:00:45.976Z,39.42
2018-06-29T05:03:15.026Z,40.13
2018-06-29T05:05:44.037Z,40.93
2018-06-29T05:08:13.068Z,41.07
2018-06-29T05:10:42.092Z,39.66
2018-06-29T05:13:11.279Z,37.61
2018-06-29T05:15:40.272Z,37.41
2018-06-29T05:18:09.661Z,37.47
2018-06-29T05:20:38.689Z,36.50
2018-06-29T05:23:07.846Z,35.00
2018-06-29T05:25:36.921Z,33.89
2018-06-29T05:28:06.055Z,33.80
2018-06-29T05:30:35.129Z,34.26
2018-06-29T05:33:04.192Z,33.26
2018-06-29T05:35:33.235Z,33.45
2018-06-29T05:38:02.283Z,34.89
2018-06-29T05:40:31.252Z,35.27
2018-06-29T05:43:00.270Z,35.22
2018-06-29T05:45:29.217Z,34.76
2018-06-29T05:47:58.256Z,34.08
2018-06-29T05:50:27.262Z,33.58
2018-06-29T05:52:56.356Z,34.61
2018-06-29T05:55:25.497Z,35.34
2018-06-29T05:57:54.537Z,35.03
2018-06-29T06:00:24.099Z,35.71
2018-06-29T06:02:53.160Z,36.49
2018-06-29T06:05:22.238Z,36.66
2018-06-29T06:07:51.273Z,35.41
2018-06-29T06:10:20.271Z,34.91
2018-06-29T06:12:49.233Z,34.17
2018-06-29T06:15:18.277Z,32.80
2018-06-29T06:17:47.244Z,32.24
2018-06-29T06:20:16.621Z,32.55
2018-06-29T06:22:45.588Z,32.61
2018-06-29T06:25:14.683Z,32.25
2018-06-29T06:27:43.855Z,31.71
2018-06-29T06:30:12.840Z,31.23
2018-06-29T06:32:41.869Z,30.82
2018-06-29T06:35:10.894Z,30.67
2018-06-29T06:37:39.870Z,30.38
2018-06-29T06:40:08.848Z,30.15
2018-06-29T06:42:37.812Z,30.19
2018-06-29T06:45:06.816Z,29.94
2018-06-29T06:47:35.821Z,29.28
2018-06-29T06:50:04.910Z,29.11
2018-06-29T06:52:33.950Z,28.50
2018-06-29T06:55:02.942Z,28.14
2018-06-29T06:57:31.957Z,28.01
2018-06-29T07:00:00.988Z,27.89
2018-06-29T07:02:29.957Z,27.74
2018-06-29T07:04:58.992Z,27.90
2018-06-29T07:07:28.025Z,28.48
2018-06-29T07:09:57.132Z,29.22
2018-06-29T07:12:26.133Z,31.04
2018-06-29T07:14:55.248Z,32.85
2018-06-29T07:17:24.202Z,34.62
2018-06-29T07:19:53.214Z,35.00
2018-06-29T07:22:22.184Z,35.37
2018-06-29T07:24:51.185Z,36.05
2018-06-29T07:27:20.268Z,36.37
2018-06-29T07:29:49.216Z,36.31
2018-06-29T07:32:18.241Z,36.36
2018-06-29T07:34:47.301Z,35.89
2018-06-29T07:37:16.333Z,34.32
2018-06-29T07:39:45.302Z,34.17
2018-06-29T07:42:14.360Z,33.34
2018-06-29T07:44:43.316Z,32.18
2018-06-29T07:47:12.404Z,30.65
2018-06-29T07:49:41.332Z,29.46
2018-06-29T07:52:10.321Z,28.20
2018-06-29T07:54:39.436Z,27.72
2018-06-29T07:57:08.487Z,27.25
2018-06-29T07:59:37.971Z,26.68
2018-06-29T08:02:07.450Z,26.13
2018-06-29T08:04:37.480Z,25.75
2018-06-29T08:07:06.939Z,25.54
2018-06-29T08:09:36.464Z,25.39
2018-06-29T08:12:05.964Z,25.56
2018-06-29T08:14:36.505Z,26.00
2018-06-29T08:17:09.896Z,26.55
2018-06-29T08:19:39.512Z,26.94
2018-06-29T08:22:09.005Z,27.26
2018-06-29T08:24:48.336Z,27.54
2018-06-29T08:27:17.867Z,28.69
2018-06-29T08:29:47.569Z,29.36
2018-06-29T08:32:17.103Z,29.63
2018-06-29T08:34:46.791Z,29.07
2018-06-29T08:37:19.008Z,28.56
2018-06-29T08:39:48.909Z,27.74
2018-06-29T08:42:18.494Z,27.06
2018-06-29T08:44:48.111Z,25.89
2018-06-29T08:47:19.697Z,24.83
2018-06-29T08:49:49.341Z,24.03
2018-06-29T08:52:19.087Z,23.33
2018-06-29T08:54:48.881Z,22.89
2018-06-29T08:57:19.230Z,22.55
2018-06-29T08:59:48.865Z,22.43
2018-06-29T09:02:18.490Z,22.51
2018-06-29T09:04:48.657Z,22.53
2018-06-29T09:07:18.967Z,23.06
2018-06-29T09:09:49.519Z,23.48
2018-06-29T09:12:19.130Z,24.15
2018-06-29T09:14:48.683Z,24.80
2018-06-29T09:17:18.300Z,25.65
2018-06-29T09:19:48.261Z,26.42
2018-06-29T09:22:18.016Z,26.95
2018-06-29T09:24:47.484Z,27.26
2018-06-29T09:27:17.255Z,27.57
2018-06-29T09:29:47.004Z,27.80
2018-06-29T09:32:17.597Z,28.11
2018-06-29T09:34:47.412Z,28.24
2018-06-29T09:37:17.659Z,28.32
2018-06-29T09:39:47.262Z,28.28
2018-06-29T09:42:17.090Z,28.21
2018-06-29T09:44:47.619Z,28.34
2018-06-29T09:47:17.266Z,28.63
2018-06-29T09:49:46.999Z,29.05
2018-06-29T09:52:16.591Z,29.18
2018-06-29T09:54:46.315Z,29.29
2018-06-29T09:57:15.944Z,29.75
2018-06-29T09:59:46.404Z,30.13
2018-06-29T10:02:16.276Z,30.64
2018-06-29T10:04:46.203Z,31.22
2018-06-29T10:07:15.976Z,32.26
2018-06-29T10:09:45.844Z,32.87
2018-06-29T10:12:15.445Z,33.34
2018-06-29T10:14:45.152Z,33.89
2018-06-29T10:17:15.343Z,34.16
2018-06-29T10:19:45.817Z,34.34
2018-06-29T10:22:15.508Z,34.10
2018-06-29T10:24:45.293Z,33.39
2018-06-29T10:27:14.938Z,32.12
2018-06-29T10:29:44.817Z,31.41
2018-06-29T10:32:14.519Z,31.13
2018-06-29T10:34:44.176Z,30.54
2018-06-29T10:37:13.892Z,30.38
2018-06-29T10:39:44.267Z,30.13
2018-06-29T10:42:16.923Z,30.60
2018-06-29T10:44:46.617Z,30.63
2018-06-29T10:47:16.372Z,30.28
2018-06-29T10:49:46.503Z,29.86
2018-06-29T10:52:17.019Z,29.00
2018-06-29T10:54:47.648Z,28.29
2018-06-29T10:57:17.365Z,27.15
2018-06-29T10:59:47.479Z,26.78
2018-06-29T11:02:18.739Z,26.65
2018-06-29T11:04:48.341Z,26.31
2018-06-29T11:07:21.117Z,26.10
2018-06-29T11:09:51.644Z,25.72
2018-06-29T11:12:21.459Z,25.54
2018-06-29T11:14:52.053Z,25.39
2018-06-29T11:17:21.791Z,25.47
2018-06-29T11:19:51.510Z,25.62
2018-06-29T11:22:22.042Z,25.83
2018-06-29T11:24:51.954Z,25.79
2018-06-29T11:27:21.587Z,25.82
2018-06-29T11:29:51.576Z,25.59
2018-06-29T11:32:21.294Z,25.45
2018-06-29T11:34:51.920Z,25.25
2018-06-29T11:37:21.625Z,25.31
2018-06-29T11:39:51.486Z,25.29
2018-06-29T11:42:21.968Z,25.23
2018-06-29T11:44:52.699Z,25.23
2018-06-29T11:47:22.419Z,25.24
2018-06-29T11:49:52.222Z,25.44
2018-06-29T11:52:21.938Z,25.35
2018-06-29T11:54:51.850Z,25.09
2018-06-29T11:57:21.492Z,24.97
2018-06-29T11:59:51.885Z,24.77
2018-06-29T12:02:21.695Z,24.62
2018-06-29T12:04:51.445Z,24.23
2018-06-29T12:07:21.141Z,23.70
2018-06-29T12:09:51.824Z,23.29
2018-06-29T12:12:21.672Z,23.20
2018-06-29T12:14:51.954Z,23.12
2018-06-29T12:17:21.905Z,22.93
2018-06-29T12:19:52.354Z,22.84
2018-06-29T12:22:22.284Z,22.78
2018-06-29T12:24:51.990Z,22.69
2018-06-29T12:27:21.710Z,22.57
2018-06-29T12:29:51.464Z,22.39
2018-06-29T12:32:21.288Z,22.28
2018-06-29T12:34:51.039Z,22.32
2018-06-29T12:37:21.428Z,22.37
2018-06-29T12:39:51.243Z,22.41
2018-06-29T12:42:21.056Z,22.41
2018-06-29T12:44:50.762Z,22.42
2018-06-29T12:47:19.889Z,22.32
2018-06-29T12:49:48.851Z,22.24
2018-06-29T12:52:17.929Z,22.11
2018-06-29T12:54:47.081Z,21.98
2018-06-29T12:57:16.133Z,21.91
2018-06-29T12:59:45.108Z,21.84
2018-06-29T13:02:14.172Z,21.82
2018-06-29T13:04:43.147Z,21.75
2018-06-29T13:07:12.211Z,21.71
2018-06-29T13:09:41.160Z,21.71
2018-06-29T13:12:10.123Z,21.74
2018-06-29T13:14:39.237Z,21.81
2018-06-29T13:17:08.236Z,21.83
2018-06-29T13:19:37.265Z,21.80
2018-06-29T13:22:06.292Z,21.73
2018-06-29T13:24:35.262Z,21.79
2018-06-29T13:27:04.401Z,21.84
2018-06-29T13:29:33.504Z,21.87
2018-06-29T13:32:02.458Z,21.64
2018-06-29T13:34:31.473Z,21.43
2018-06-29T13:37:00.527Z,21.29
2018-06-29T13:39:29.653Z,21.23
2018-06-29T13:41:58.574Z,21.11
2018-06-29T13:44:27.575Z,21.05
2018-06-29T13:46:56.556Z,20.95
2018-06-29T13:49:25.597Z,20.86
2018-06-29T13:51:54.570Z,20.67
2018-06-29T13:54:23.622Z,20.46
2018-06-29T13:56:52.741Z,20.25
2018-06-29T13:59:21.869Z,20.21
2018-06-29T14:01:50.930Z,20.25
2018-06-29T14:04:20.000Z,20.19
2018-06-29T14:06:49.005Z,20.19
2018-06-29T14:09:18.013Z,20.21
2018-06-29T14:11:47.037Z,20.27
2018-06-29T14:14:16.060Z,20.23
2018-06-29T14:16:45.080Z,20.16
2018-06-29T14:19:14.173Z,20.12
2018-06-29T14:21:43.897Z,20.14
2018-06-29T14:24:12.969Z,20.04
2018-06-29T14:26:41.993Z,19.95
2018-06-29T14:29:11.195Z,19.94
2018-06-29T14:31:40.181Z,19.95
2018-06-29T14:34:09.124Z,19.97
2018-06-29T14:36:38.089Z,20.00
2018-06-29T14:39:09.242Z,20.03
2018-06-29T14:41:38.296Z,20.03
2018-06-29T14:44:07.848Z,20.01
2018-06-29T14:46:37.592Z,20.03
2018-06-29T14:49:06.632Z,20.05
2018-06-29T14:51:35.597Z,20.12
2018-06-29T14:54:04.652Z,20.03
2018-06-29T14:56:33.670Z,20.06
2018-06-29T14:59:02.653Z,20.05
2018-06-29T15:01:31.619Z,20.05
2018-06-29T15:04:00.636Z,20.06
2018-06-29T15:06:29.598Z,20.11
2018-06-29T15:08:58.603Z,20.16
2018-06-29T15:11:27.764Z,20.21
2018-06-29T15:13:57.631Z,20.23
2018-06-29T15:16:26.744Z,20.16
2018-06-29T15:18:55.708Z,20.00
2018-06-29T15:21:24.725Z,20.08
2018-06-29T15:23:53.748Z,20.25
2018-06-29T15:26:22.827Z,20.32
2018-06-29T15:28:51.780Z,20.40
2018-06-29T15:31:20.858Z,20.53
2018-06-29T15:33:49.997Z,20.62
2018-06-29T15:36:19.042Z,20.80
2018-06-29T15:38:48.076Z,20.92
2018-06-29T15:41:17.077Z,21.02
2018-06-29T15:43:46.039Z,21.08
2018-06-29T15:46:15.004Z,21.16
2018-06-29T15:48:44.017Z,21.26
2018-06-29T15:51:13.052Z,21.30
2018-06-29T15:53:42.117Z,21.38
2018-06-29T15:56:11.383Z,21.52
2018-06-29T15:58:40.339Z,21.63
2018-06-29T16:01:09.563Z,21.72
2018-06-29T16:03:38.556Z,21.83
2018-06-29T16:06:07.675Z,21.89
2018-06-29T16:08:36.676Z,21.89
2018-06-29T16:11:05.689Z,21.84
2018-06-29T16:13:34.694Z,21.79
2018-06-29T16:16:03.818Z,21.70
2018-06-29T16:18:32.833Z,21.60
2018-06-29T16:21:01.784Z,21.47
2018-06-29T16:23:30.865Z,21.38
2018-06-29T16:25:59.836Z,21.29
2018-06-29T16:28:28.785Z,21.24
2018-06-29T16:30:57.837Z,21.18
2018-06-29T16:33:26.867Z,21.14
2018-06-29T16:35:55.840Z,21.09
2018-06-29T16:38:24.925Z,20.98
2018-06-29T16:40:54.066Z,20.93
2018-06-29T16:43:23.089Z,20.85
2018-06-29T16:45:52.063Z,20.77
2018-06-29T16:48:20.996Z,20.68
2018-06-29T16:50:50.048Z,20.60
2018-06-29T16:53:19.060Z,20.54
2018-06-29T16:55:48.017Z,20.52
2018-06-29T16:58:17.084Z,20.45
2018-06-29T17:00:46.069Z,20.43
2018-06-29T17:03:15.069Z,20.45
2018-06-29T17:05:44.204Z,20.35
2018-06-29T17:08:13.124Z,20.30
2018-06-29T17:10:42.149Z,20.06
2018-06-29T17:13:11.164Z,20.26
2018-06-29T17:15:40.128Z,20.21
2018-06-29T17:18:09.133Z,20.19
2018-06-29T17:20:38.108Z,20.18
2018-06-29T17:23:07.567Z,20.16
2018-06-29T17:25:36.656Z,20.10
2018-06-29T17:28:05.771Z,20.12
2018-06-29T17:30:34.735Z,20.10
2018-06-29T17:33:03.679Z,20.09
2018-06-29T17:35:32.662Z,20.09
2018-06-29T17:38:01.685Z,20.16
2018-06-29T17:40:30.724Z,20.19
2018-06-29T17:42:59.666Z,20.17
2018-06-29T17:45:28.689Z,20.19
2018-06-29T17:47:57.641Z,20.23
2018-06-29T17:50:26.676Z,20.25
2018-06-29T17:52:55.701Z,20.26
2018-06-29T17:55:24.761Z,20.23
2018-06-29T17:57:53.711Z,20.26
2018-06-29T18:00:22.672Z,20.27
2018-06-29T18:02:51.620Z,20.27
2018-06-29T18:05:20.681Z,20.26
2018-06-29T18:07:49.598Z,20.24
2018-06-29T18:10:18.640Z,20.19
2018-06-29T18:12:47.761Z,20.16
2018-06-29T18:15:16.761Z,20.11
2018-06-29T18:17:45.802Z,20.03
2018-06-29T18:20:14.792Z,20.00
2018-06-29T18:22:43.748Z,20.00
2018-06-29T18:25:12.769Z,19.98
2018-06-29T18:27:41.673Z,20.00
2018-06-29T18:30:10.766Z,19.97
2018-06-29T18:32:39.715Z,19.95
2018-06-29T18:35:08.648Z,19.93
2018-06-29T18:37:37.619Z,19.87
2018-06-29T18:40:06.800Z,19.82
2018-06-29T18:42:35.794Z,19.79
2018-06-29T18:45:04.800Z,19.76
2018-06-29T18:47:33.881Z,19.70
2018-06-29T18:50:02.899Z,19.68
2018-06-29T18:52:31.932Z,19.66
2018-06-29T18:55:00.877Z,19.63
2018-06-29T18:57:30.859Z,19.57
2018-06-29T18:59:59.917Z,19.53
2018-06-29T19:02:29.046Z,19.49
2018-06-29T19:04:58.057Z,19.44
2018-06-29T19:07:27.081Z,19.42
2018-06-29T19:09:56.094Z,19.36
2018-06-29T19:12:25.184Z,19.31
2018-06-29T19:14:54.164Z,19.27
2018-06-29T19:17:23.136Z,19.23
2018-06-29T19:19:52.140Z,19.15
2018-06-29T19:22:21.141Z,19.09
2018-06-29T19:24:50.176Z,19.02
2018-06-29T19:27:19.253Z,19.00
2018-06-29T19:29:48.323Z,18.97
2018-06-29T19:32:17.296Z,18.94
2018-06-29T19:34:46.296Z,18.96
2018-06-29T19:37:15.333Z,18.97
2018-06-29T19:39:44.356Z,18.96
2018-06-29T19:42:13.408Z,18.94
2018-06-29T19:44:42.367Z,18.95
2018-06-29T19:47:11.389Z,18.92
2018-06-29T19:49:40.480Z,18.90
2018-06-29T19:52:09.552Z,18.95
2018-06-29T19:54:38.500Z,19.02
2018-06-29T19:57:07.880Z,19.08
2018-06-29T19:59:36.896Z,19.14
2018-06-29T20:02:05.911Z,19.24
2018-06-29T20:04:34.865Z,19.27
2018-06-29T20:07:03.902Z,19.26
2018-06-29T20:09:32.898Z,19.28
2018-06-29T20:12:01.871Z,19.25
2018-06-29T20:14:30.837Z,19.25
2018-06-29T20:16:59.867Z,19.25
2018-06-29T20:19:28.845Z,19.26
2018-06-29T20:21:57.844Z,19.23
2018-06-29T20:24:26.866Z,19.21
2018-06-29T20:26:55.919Z,19.17
2018-06-29T20:29:24.977Z,19.18
2018-06-29T20:31:54.034Z,19.19
2018-06-29T20:34:23.068Z,19.17
2018-06-29T20:36:52.013Z,19.14
2018-06-29T20:39:21.044Z,19.13
2018-06-29T20:41:50.053Z,19.11
2018-06-29T20:44:19.093Z,19.15
2018-06-29T20:46:48.137Z,19.14
2018-06-29T20:49:17.152Z,19.07
2018-06-29T20:51:46.221Z,19.07
2018-06-29T20:54:15.198Z,19.06
2018-06-29T20:56:44.248Z,19.06
2018-06-29T20:59:13.292Z,19.05
2018-06-29T21:01:42.317Z,19.08
2018-06-29T21:04:11.405Z,19.07
2018-06-29T21:06:40.378Z,19.13
2018-06-29T21:09:10.875Z,19.14
2018-06-29T21:11:40.159Z,19.11
2018-06-29T21:14:09.180Z,19.15
2018-06-29T21:16:38.123Z,19.18
2018-06-29T21:19:07.159Z,19.23
2018-06-29T21:21:36.098Z,19.21
2018-06-29T21:24:05.193Z,19.23
2018-06-29T21:26:34.237Z,19.23
2018-06-29T21:29:03.246Z,19.22
2018-06-29T21:31:33.158Z,19.27
2018-06-29T21:34:02.190Z,19.28
2018-06-29T21:36:31.273Z,19.30
2018-06-29T21:39:00.348Z,19.29
2018-06-29T21:41:29.324Z,19.29
2018-06-29T21:43:58.356Z,19.25
2018-06-29T21:46:27.377Z,19.23
2018-06-29T21:48:56.376Z,19.20
2018-06-29T21:51:25.395Z,19.19
2018-06-29T21:53:54.352Z,19.11
2018-06-29T21:56:23.400Z,19.06
2018-06-29T21:58:52.428Z,19.07
2018-06-29T22:01:21.392Z,19.08
2018-06-29T22:03:50.409Z,19.10
2018-06-29T22:06:19.429Z,19.13
2018-06-29T22:08:48.454Z,19.15
2018-06-29T22:11:17.465Z,19.13
2018-06-29T22:13:46.617Z,19.13
2018-06-29T22:16:15.576Z,19.15
2018-06-29T22:18:44.632Z,19.14
2018-06-29T22:21:13.679Z,19.15
2018-06-29T22:23:42.649Z,19.16
2018-06-29T22:26:12.572Z,19.18
2018-06-29T22:28:41.588Z,19.22
2018-06-29T22:31:10.630Z,19.28
2018-06-29T22:33:39.588Z,19.28
2018-06-29T22:36:08.709Z,19.26
2018-06-29T22:38:37.726Z,19.25
2018-06-29T22:41:06.811Z,19.16
2018-06-29T22:43:35.805Z,19.13
2018-06-29T22:46:04.873Z,19.13
2018-06-29T22:48:33.915Z,19.15
2018-06-29T22:51:02.860Z,19.14
2018-06-29T22:53:31.869Z,19.11
2018-06-29T22:56:00.886Z,19.15
2018-06-29T22:58:29.837Z,19.19
2018-06-29T23:00:58.841Z,19.24
2018-06-29T23:03:58.537Z,19.29
2018-06-29T23:06:27.609Z,19.31
2018-06-29T23:08:56.641Z,19.34
2018-06-29T23:11:25.605Z,19.35
2018-06-29T23:13:54.628Z,19.40
2018-06-29T23:16:23.567Z,19.39
2018-06-29T23:18:52.585Z,19.41
2018-06-29T23:21:21.593Z,19.45
2018-06-29T23:23:50.558Z,19.44
2018-06-29T23:26:19.499Z,19.43
2018-06-29T23:28:48.472Z,19.51
2018-06-29T23:31:17.426Z,19.48
2018-06-29T23:33:46.425Z,19.51
2018-06-29T23:36:15.434Z,19.53
2018-06-29T23:38:44.474Z,19.57
2018-06-29T23:41:13.506Z,19.58
2018-06-29T23:43:42.525Z,19.58
2018-06-29T23:46:11.529Z,19.60
2018-06-29T23:48:40.533Z,19.60
2018-06-29T23:51:09.498Z,19.56
2018-06-29T23:53:38.471Z,19.55
2018-06-29T23:56:07.469Z,19.58
2018-06-29T23:58:36.492Z,19.57
